This is the latest recevied weather packets stored in our database for station/object BMCB-35. If no packets are shown the sender has not sent any weather packets the latest 10 day(s).
| Time | Temp. | Humidity | Pressure | Rain* | Wind** | Luminosity | Snow |
|---|---|---|---|---|---|---|---|
| 1777261207 | 8.33° C | 61% | 1023.2 hPa | 0 mm | - | 0 W/m² | - |
| 1777257637 | 7.78° C | 63% | 1023.1 hPa | 0 mm | - | 0 W/m² | - |
| 1777256442 | 8.33° C | 62% | 1023.3 hPa | 0 mm | - | 0 W/m² | - |
| 1777254612 | 8.89° C | 61% | 1023.2 hPa | 0 mm | - | 0 W/m² | - |
| 1777251036 | 9.44° C | 60% | 1023.6 hPa | 0 mm | - | 0 W/m² | - |
| 1777250438 | 9.44° C | 60% | 1023.7 hPa | 0 mm | - | 0 W/m² | - |
| 1777248035 | 10° C | 59% | 1023.8 hPa | 0 mm | - | 0 W/m² | - |
| 1777246224 | 10.56° C | 57% | 1023.7 hPa | 0 mm | - | 0 W/m² | - |
| 1777245640 | 11.11° C | 55% | 1023.6 hPa | 0 mm | - | 0 W/m² | - |
| 1777245040 | 11.11° C | 55% | 1023.6 hPa | 0 mm | - | 0 W/m² | - |
| 1777243844 | 11.67° C | 52% | 1023.4 hPa | 0 mm | - | 0 W/m² | - |
| 1777242635 | 12.78° C | 47% | 1023.2 hPa | 0 mm | - | 0 W/m² | - |
| 1777242011 | 12.78° C | 46% | 1023.2 hPa | 0 mm | - | 0 W/m² | - |
| 1777241443 | 12.78° C | 46% | 1023.2 hPa | 0 mm | - | 0 W/m² | - |
| 1777240820 | 12.78° C | 46% | 1023.1 hPa | 0 mm | - | 0 W/m² | - |
| 1777239635 | 12.78° C | 48% | 1022.9 hPa | 0 mm | - | 0 W/m² | - |
| 1777236639 | 13.33° C | 46% | 1022.7 hPa | 0 mm | - | 0 W/m² | - |
| 1777236041 | 12.22° C | 50% | 1022.6 hPa | 0 mm | - | 0 W/m² | - |
| 1777231812 | 14.44° C | 44% | 1021.8 hPa | 0 mm | - | 0 W/m² | - |
| 1777230612 | 15° C | 43% | 1021.7 hPa | 0 mm | - | 0 W/m² | - |
| 1777228846 | 16.11° C | 40% | 1021.4 hPa | 0 mm | - | 0 W/m² | - |
| 1777224633 | 20° C | 28% | 1020.9 hPa | 0 mm | - | 87 W/m² | - |
| 1777221032 | 21.11° C | 26% | 1021.2 hPa | 0 mm | - | 262 W/m² | - |
| 1777220441 | 21.11° C | 26% | 1021.2 hPa | 0 mm | - | 262 W/m² | - |
| 1777218008 | 21.11° C | 26% | 1021.4 hPa | 0 mm | - | 432 W/m² | - |
* Rain latest hour (hover to see other rain measurements)
** Current wind speed in m/s (hover to see current wind gust speed)